Time;durP1;ratioP1;P1;durP2;ratioP2;P2;SDS_P1;SDS_P2;PMS_P1;PMS_P2;Temp;Humidity;BMP_temperature;BMP_pressure;BME280_temperature;BME280_humidity;BME280_pressure;Samples;Min_cycle;Max_cycle;Signal;HPM_P1;HPM_P2
2021/03/28 00:00:54;;;;;;;25.85;24.05;;;8.00;63.80;;;;;;5094858;28;20215;-78
2021/03/28 00:03:26;;;;;;;24.88;23.00;;;7.80;65.70;;;;;;5094885;28;20208;-77
2021/03/28 00:06:06;;;;;;;26.40;24.48;;;7.80;64.80;;;;;;5094511;28;20212;-78
2021/03/28 00:08:33;;;;;;;24.30;22.75;;;7.70;67.70;;;;;;5094907;28;20211;-78
2021/03/28 00:11:15;;;;;;;24.15;22.45;;;7.70;67.40;;;;;;5093195;28;20516;-78
2021/03/28 00:13:49;;;;;;;25.60;23.60;;;7.70;65.70;;;;;;5094727;28;20318;-78
2021/03/28 00:16:17;;;;;;;24.00;22.40;;;7.60;65.90;;;;;;5094648;28;20199;-78
2021/03/28 00:18:56;;;;;;;23.83;22.42;;;7.50;66.50;;;;;;5094655;28;20213;-78
2021/03/28 00:21:25;;;;;;;24.98;23.13;;;7.50;65.90;;;;;;5096928;28;20540;-78
2021/03/28 00:23:54;;;;;;;24.40;22.63;;;7.50;71.30;;;;;;5101506;28;20194;-78
2021/03/28 00:26:26;;;;;;;24.65;22.75;;;7.50;67.10;;;;;;5094361;28;20285;-78
2021/03/28 00:29:06;;;;;;;24.80;23.30;;;7.50;66.30;;;;;;5094628;28;20191;-78
2021/03/28 00:31:35;;;;;;;23.98;22.40;;;7.40;66.50;;;;;;5094429;28;20197;-79
2021/03/28 00:34:21;;;;;;;24.50;22.98;;;7.30;66.40;;;;;;5094231;28;20204;-78
2021/03/28 00:36:50;;;;;;;24.80;23.40;;;7.20;67.90;;;;;;5093856;28;20206;-78
2021/03/28 00:39:36;;;;;;;24.73;23.00;;;7.10;75.70;;;;;;5094243;28;20304;-78
2021/03/28 00:42:07;;;;;;;25.05;23.27;;;7.20;69.30;;;;;;5094184;28;20236;-78
2021/03/28 00:44:43;;;;;;;25.00;23.33;;;7.10;68.30;;;;;;5094277;28;20279;-78
2021/03/28 00:47:11;;;;;;;24.60;22.90;;;7.00;67.60;;;;;;5093557;28;20225;-78
2021/03/28 00:49:41;;;;;;;24.92;23.20;;;7.00;67.40;;;;;;5093981;28;20559;-78
2021/03/28 00:52:18;;;;;;;25.85;23.88;;;7.00;71.00;;;;;;5094119;28;20201;-78
2021/03/28 00:54:47;;;;;;;24.55;22.85;;;7.00;69.90;;;;;;5094147;28;20208;-78
2021/03/28 00:57:22;;;;;;;25.08;23.40;;;6.90;67.70;;;;;;5093561;28;20193;-78
2021/03/28 00:59:56;;;;;;;23.85;22.35;;;6.90;67.80;;;;;;5093382;28;20215;-78
2021/03/28 01:02:28;;;;;;;24.85;23.23;;;6.80;67.30;;;;;;5093729;28;20202;-78
2021/03/28 01:05:13;;;;;;;24.00;22.50;;;6.80;68.40;;;;;;5093660;28;20648;-78
2021/03/28 01:07:52;;;;;;;23.67;22.23;;;6.90;68.70;;;;;;5092975;28;20247;-78
2021/03/28 01:10:48;;;;;;;24.42;22.73;;;6.90;68.40;;;;;;5093578;28;20227;-78
2021/03/28 01:14:03;;;;;;;26.10;24.17;;;6.80;67.40;;;;;;5093666;28;20205;-78
2021/03/28 01:17:03;;;;;;;23.80;22.40;;;6.70;67.40;;;;;;5093149;28;20595;-78
2021/03/28 01:19:50;;;;;;;23.88;22.48;;;6.60;67.60;;;;;;5059720;28;20304;-78
2021/03/28 01:22:21;;;;;;;24.73;22.98;;;6.60;69.40;;;;;;5093237;28;20250;-78
2021/03/28 01:24:58;;;;;;;23.50;22.13;;;6.60;68.60;;;;;;5093406;28;20207;-78
2021/03/28 01:27:29;;;;;;;24.20;22.10;;;6.50;68.40;;;;;;5092905;28;20219;-78
2021/03/28 01:30:07;;;;;;;23.70;22.13;;;6.50;68.40;;;;;;5093344;28;20703;-78
2021/03/28 01:32:38;;;;;;;24.42;23.02;;;6.40;68.50;;;;;;5093236;28;20208;-78
2021/03/28 01:35:19;;;;;;;24.65;22.90;;;6.30;70.50;;;;;;5093149;28;20203;-78
2021/03/28 01:38:00;;;;;;;23.83;22.30;;;6.30;71.70;;;;;;5092917;28;20733;-78
2021/03/28 01:40:34;;;;;;;23.75;22.15;;;6.30;71.60;;;;;;5093119;28;20219;-78
2021/03/28 01:43:11;;;;;;;24.33;22.77;;;6.30;69.70;;;;;;5093179;28;20200;-78
2021/03/28 01:45:49;;;;;;;24.00;22.55;;;6.30;69.40;;;;;;5092607;28;20195;-78
2021/03/28 01:48:34;;;;;;;24.70;22.85;;;6.20;69.50;;;;;;5093108;28;20225;-79
2021/03/28 01:51:33;;;;;;;24.50;22.55;;;6.20;70.40;;;;;;5093085;28;20592;-78
2021/03/28 01:54:05;;;;;;;24.88;22.95;;;6.10;74.10;;;;;;5060420;28;20256;-78
2021/03/28 01:56:36;;;;;;;23.50;22.13;;;6.10;71.30;;;;;;5092464;28;20657;-78
2021/03/28 01:59:16;;;;;;;23.65;22.15;;;6.00;70.60;;;;;;5092427;28;20276;-78
2021/03/28 02:01:47;;;;;;;24.27;22.48;;;6.10;70.20;;;;;;5092797;28;20668;-77
2021/03/28 02:04:22;;;;;;;22.77;21.50;;;6.00;70.20;;;;;;5092811;28;20564;-78
2021/03/28 02:07:10;;;;;;;24.20;22.30;;;6.00;73.90;;;;;;5092261;28;20574;-79
2021/03/28 02:09:46;;;;;;;23.95;22.15;;;5.90;75.80;;;;;;5092750;28;20226;-78
2021/03/28 02:12:15;;;;;;;23.77;22.27;;;5.90;72.40;;;;;;5092894;28;20198;-79
2021/03/28 02:15:04;;;;;;;25.17;23.50;;;5.90;71.30;;;;;;5093127;28;20199;-78
2021/03/28 02:17:49;;;;;;;24.17;22.60;;;5.90;71.40;;;;;;5097007;28;20202;-78
2021/03/28 02:20:31;;;;;;;23.88;22.48;;;5.80;71.40;;;;;;5097927;28;20215;-78
2021/03/28 02:23:11;;;;;;;24.38;22.77;;;5.80;71.60;;;;;;5092977;28;20256;-78
2021/03/28 02:25:46;;;;;;;24.88;23.02;;;5.80;72.20;;;;;;5092445;28;20227;-78
2021/03/28 02:28:22;;;;;;;24.00;22.50;;;5.80;71.70;;;;;;5092670;28;20218;-78
2021/03/28 02:30:55;;;;;;;24.85;23.20;;;5.70;71.90;;;;;;5092250;28;20303;-78
2021/03/28 02:33:26;;;;;;;24.42;23.00;;;5.60;72.10;;;;;;5092681;28;20202;-78
2021/03/28 02:36:14;;;;;;;24.50;23.00;;;5.60;72.30;;;;;;5095709;28;20211;-78
2021/03/28 02:39:14;;;;;;;24.02;22.45;;;5.60;73.70;;;;;;5096776;28;20286;-78
2021/03/28 02:41:47;;;;;;;23.80;22.35;;;5.70;73.40;;;;;;5096718;28;20199;-78
2021/03/28 02:44:50;;;;;;;24.33;22.83;;;5.60;72.60;;;;;;5096826;28;20203;-78
2021/03/28 02:47:32;;;;;;;23.85;22.35;;;5.60;72.50;;;;;;5096138;28;20224;-77
2021/03/28 02:50:19;;;;;;;24.23;22.83;;;5.60;72.30;;;;;;5096443;28;20715;-78
2021/03/28 02:53:01;;;;;;;24.70;22.90;;;5.60;72.20;;;;;;5097034;28;20656;-78
2021/03/28 02:55:41;;;;;;;24.00;22.70;;;5.60;74.50;;;;;;5095754;28;20229;-77
2021/03/28 02:58:27;;;;;;;24.20;22.48;;;5.70;75.20;;;;;;5096491;28;20571;-78
2021/03/28 03:01:10;;;;;;;24.50;22.95;;;5.70;73.30;;;;;;5096639;28;20298;-78
2021/03/28 03:04:05;;;;;;;24.55;23.05;;;5.60;72.70;;;;;;5096331;28;20275;-77
2021/03/28 03:07:12;;;;;;;23.30;21.80;;;5.60;72.60;;;;;;5095838;28;20197;-77
2021/03/28 03:09:57;;;;;;;23.10;21.65;;;5.70;73.50;;;;;;5075836;28;20226;-78
2021/03/28 03:12:35;;;;;;;23.10;21.60;;;5.70;74.90;;;;;;5096427;28;20199;-77
2021/03/28 03:15:09;;;;;;;23.45;21.70;;;5.70;73.40;;;;;;5096624;28;20209;-78
2021/03/28 03:18:13;;;;;;;23.10;21.45;;;5.70;72.50;;;;;;5096621;28;20205;-78
2021/03/28 03:21:07;;;;;;;23.45;22.05;;;5.70;72.30;;;;;;5095995;28;20247;-78
2021/03/28 03:24:12;;;;;;;23.90;21.90;;;5.60;72.60;;;;;;5096247;28;20228;-78
2021/03/28 03:27:10;;;;;;;22.67;21.25;;;5.50;77.50;;;;;;5093540;28;20211;-78
2021/03/28 03:29:54;;;;;;;23.30;21.75;;;5.50;78.90;;;;;;5095961;28;20214;-78
2021/03/28 03:32:48;;;;;;;24.00;22.30;;;5.50;74.90;;;;;;5096057;28;20728;-78
2021/03/28 03:35:31;;;;;;;23.20;21.70;;;5.50;73.80;;;;;;5096383;28;20199;-77
2021/03/28 03:38:23;;;;;;;23.23;21.40;;;5.50;73.40;;;;;;5096153;28;20198;-78
2021/03/28 03:41:28;;;;;;;22.92;21.52;;;5.50;73.30;;;;;;5096206;28;20220;-78
2021/03/28 03:44:09;;;;;;;22.50;21.20;;;5.40;73.80;;;;;;5075376;28;20195;-78
2021/03/28 03:46:46;;;;;;;23.92;22.52;;;5.40;76.90;;;;;;5094784;28;20244;-77
2021/03/28 03:49:51;;;;;;;23.00;21.45;;;5.40;74.50;;;;;;5095550;28;20361;-78
2021/03/28 03:52:51;;;;;;;24.73;22.42;;;5.50;73.40;;;;;;5088482;28;20191;-78
2021/03/28 03:55:28;;;;;;;24.05;22.55;;;5.40;73.40;;;;;;5095250;28;20661;-78
2021/03/28 03:58:00;;;;;;;24.48;22.88;;;5.40;73.30;;;;;;5095100;28;20195;-78
2021/03/28 04:00:29;;;;;;;23.50;22.00;;;5.30;75.40;;;;;;5094762;28;20227;-78
2021/03/28 04:03:08;;;;;;;22.90;21.45;;;5.30;74.00;;;;;;5095124;28;20747;-78
2021/03/28 04:05:59;;;;;;;24.75;22.45;;;5.30;73.70;;;;;;5094333;28;20209;-78
2021/03/28 04:09:01;;;;;;;23.58;21.98;;;5.40;73.10;;;;;;5094643;28;20219;-78
2021/03/28 04:11:50;;;;;;;23.40;22.00;;;5.40;72.80;;;;;;5012739;28;20193;-77
2021/03/28 04:14:29;;;;;;;23.65;21.95;;;5.20;73.10;;;;;;5077950;28;20192;-77
2021/03/28 04:17:09;;;;;;;23.30;21.77;;;5.20;73.40;;;;;;5094003;28;20201;-77
2021/03/28 04:19:47;;;;;;;23.33;21.88;;;5.20;73.40;;;;;;5094596;28;20214;-77
2021/03/28 04:22:45;;;;;;;23.15;21.50;;;5.30;73.00;;;;;;5094407;28;20656;-77
2021/03/28 04:25:28;;;;;;;24.08;22.63;;;5.30;72.90;;;;;;5094531;28;20567;-77
2021/03/28 04:28:21;;;;;;;23.33;22.02;;;5.30;72.80;;;;;;5094280;28;20219;-77
2021/03/28 04:31:04;;;;;;;23.90;22.30;;;5.30;72.70;;;;;;5094090;28;20734;-77
2021/03/28 04:33:39;;;;;;;22.88;21.33;;;5.30;72.50;;;;;;5094178;28;20281;-77
2021/03/28 04:36:17;;;;;;;23.95;22.15;;;5.30;72.80;;;;;;5093788;28;20209;-77
2021/03/28 04:39:04;;;;;;;23.02;21.58;;;5.20;72.90;;;;;;5094073;28;20187;-77
2021/03/28 04:42:09;;;;;;;23.50;22.10;;;5.20;73.00;;;;;;5094129;28;20199;-77
2021/03/28 04:45:02;;;;;;;23.90;22.25;;;5.20;72.90;;;;;;5094067;28;20213;-77
2021/03/28 04:47:52;;;;;;;23.35;21.80;;;5.30;72.90;;;;;;5090229;28;20241;-77
2021/03/28 04:50:49;;;;;;;23.38;21.98;;;5.20;73.10;;;;;;5093956;28;20268;-77
2021/03/28 04:53:52;;;;;;;23.48;21.88;;;5.10;73.60;;;;;;5093925;28;20268;-77
2021/03/28 04:56:49;;;;;;;23.83;22.00;;;5.10;73.80;;;;;;5093326;28;20203;-77
2021/03/28 04:59:46;;;;;;;23.55;22.05;;;5.20;73.50;;;;;;5093397;28;20225;-77
2021/03/28 05:02:26;;;;;;;25.83;24.25;;;5.00;73.80;;;;;;5093832;28;20210;-77
2021/03/28 05:05:23;;;;;;;24.55;22.95;;;5.00;74.20;;;;;;5093291;28;20206;-77
2021/03/28 05:08:23;;;;;;;24.20;22.35;;;5.00;74.20;;;;;;5093377;28;20226;-77
2021/03/28 05:11:34;;;;;;;22.95;21.48;;;4.90;74.40;;;;;;5059264;28;20223;-77
2021/03/28 05:14:36;;;;;;;23.65;22.25;;;5.00;74.30;;;;;;5055979;28;20199;-77
2021/03/28 05:17:38;;;;;;;24.65;22.77;;;4.90;74.20;;;;;;5092687;28;20218;-78
2021/03/28 05:20:28;;;;;;;23.83;22.33;;;5.00;74.30;;;;;;5093420;28;20292;-77
2021/03/28 05:23:40;;;;;;;24.15;22.55;;;5.00;74.20;;;;;;5093392;28;20199;-77
2021/03/28 05:26:37;;;;;;;25.13;23.13;;;4.90;74.40;;;;;;5092669;28;20725;-77
2021/03/28 05:29:40;;;;;;;25.48;23.45;;;5.00;74.30;;;;;;5092821;28;20249;-77
2021/03/28 05:32:39;;;;;;;24.25;22.45;;;5.10;73.90;;;;;;5079377;28;20224;-77
2021/03/28 05:35:20;;;;;;;24.52;23.02;;;5.10;73.90;;;;;;5092848;28;20218;-77
2021/03/28 05:38:19;;;;;;;23.88;22.20;;;5.10;74.00;;;;;;5092763;28;20191;-77
2021/03/28 05:41:10;;;;;;;24.15;22.42;;;5.10;74.10;;;;;;5092943;28;20223;-77
2021/03/28 05:44:13;;;;;;;23.80;22.20;;;5.20;73.90;;;;;;5092832;28;20199;-77
2021/03/28 05:46:51;;;;;;;23.85;22.17;;;5.20;74.40;;;;;;5092326;28;20199;-77
2021/03/28 05:49:33;;;;;;;23.92;22.63;;;5.20;76.20;;;;;;5092784;28;20765;-77
2021/03/28 05:52:24;;;;;;;24.60;23.05;;;5.30;76.80;;;;;;5092908;28;20199;-77
2021/03/28 05:55:10;;;;;;;24.17;22.48;;;5.40;75.40;;;;;;5092792;28;20195;-77
2021/03/28 05:58:09;;;;;;;24.05;22.63;;;5.40;76.00;;;;;;5092233;28;20281;-77
2021/03/28 06:01:02;;;;;;;23.10;21.70;;;5.50;75.50;;;;;;5092189;28;20216;-77
2021/03/28 06:04:21;;;;;;;23.73;22.25;;;5.60;73.80;;;;;;5056983;28;20329;-77
2021/03/28 06:07:38;;;;;;;24.02;22.52;;;5.60;73.60;;;;;;5092049;28;20199;-77
2021/03/28 06:10:44;;;;;;;23.73;22.23;;;5.60;74.80;;;;;;5092334;28;20237;-77
2021/03/28 06:13:37;;;;;;;26.35;24.77;;;5.60;73.60;;;;;;5092503;28;20199;-77
2021/03/28 06:16:15;;;;;;;24.45;22.92;;;5.60;73.00;;;;;;5092577;28;20203;-77
2021/03/28 06:19:26;;;;;;;23.67;22.17;;;5.70;72.50;;;;;;5092325;28;20248;-77
2021/03/28 06:22:41;;;;;;;25.52;23.30;;;5.80;72.80;;;;;;5071894;28;20200;-78
2021/03/28 06:25:32;;;;;;;25.63;23.65;;;5.80;73.90;;;;;;5092399;28;20202;-77
2021/03/28 06:28:38;;;;;;;26.20;24.17;;;6.00;71.50;;;;;;5092218;28;20269;-78
2021/03/28 06:31:50;;;;;;;26.00;23.80;;;6.10;70.50;;;;;;5092344;28;20199;-77
2021/03/28 06:35:00;;;;;;;25.35;23.15;;;6.10;70.50;;;;;;5092168;28;20199;-78
2021/03/28 06:38:11;;;;;;;352.55;74.65;;;6.40;70.10;;;;;;5091805;28;20195;-77
2021/03/28 06:40:59;;;;;;;27.77;25.25;;;6.40;71.90;;;;;;5092219;28;20223;-78
2021/03/28 06:43:48;;;;;;;24.92;23.02;;;6.60;74.80;;;;;;5092494;28;20291;-76
2021/03/28 06:46:54;;;;;;;26.17;23.80;;;6.70;70.90;;;;;;5091801;28;20229;-77
2021/03/28 06:49:55;;;;;;;24.42;22.83;;;7.00;69.60;;;;;;5092200;28;20587;-77
2021/03/28 06:52:43;;;;;;;24.02;22.23;;;7.30;68.30;;;;;;5092341;28;20246;-77
2021/03/28 06:55:36;;;;;;;24.73;22.83;;;7.70;67.20;;;;;;5092124;28;20215;-78
2021/03/28 06:58:48;;;;;;;24.95;23.00;;;8.00;65.90;;;;;;5092145;28;20259;-77
2021/03/28 07:01:50;;;;;;;24.55;22.77;;;8.20;64.60;;;;;;5091983;28;20191;-77
2021/03/28 07:04:50;;;;;;;23.75;22.23;;;8.50;63.80;;;;;;5091891;28;20195;-77
2021/03/28 07:07:59;;;;;;;25.02;23.20;;;8.60;63.20;;;;;;5084901;28;20219;-77
2021/03/28 07:10:54;;;;;;;24.30;22.80;;;8.90;62.30;;;;;;5053430;28;20223;-77
2021/03/28 07:14:03;;;;;;;23.67;22.10;;;9.20;63.80;;;;;;5088393;28;20199;-77
2021/03/28 07:16:55;;;;;;;25.77;24.05;;;9.40;61.40;;;;;;5069634;28;20656;-77
2021/03/28 07:19:54;;;;;;;24.83;23.30;;;9.40;60.90;;;;;;5091979;28;20211;-77
2021/03/28 07:22:38;;;;;;;24.55;23.10;;;9.70;60.40;;;;;;5094933;28;20191;-77
2021/03/28 07:25:46;;;;;;;25.40;23.42;;;9.70;59.80;;;;;;5095632;28;20199;-77
2021/03/28 07:29:11;;;;;;;27.38;24.88;;;9.80;60.30;;;;;;5094972;28;20276;-77
2021/03/28 07:32:13;;;;;;;24.98;23.17;;;9.90;60.50;;;;;;5095510;28;20206;-77
2021/03/28 07:35:13;;;;;;;23.33;21.83;;;10.00;60.00;;;;;;5095317;28;20207;-77
2021/03/28 07:38:12;;;;;;;25.13;23.33;;;10.30;59.40;;;;;;5094954;28;20195;-77
2021/03/28 07:41:13;;;;;;;23.67;22.27;;;10.40;58.50;;;;;;5095489;28;20522;-77
2021/03/28 07:44:17;;;;;;;25.17;23.33;;;10.80;58.30;;;;;;5095297;28;20197;-77
2021/03/28 07:47:21;;;;;;;24.60;22.93;;;10.90;57.80;;;;;;5094741;28;20502;-77
2021/03/28 07:50:25;;;;;;;25.00;23.20;;;11.10;57.30;;;;;;5095158;28;20472;-77
2021/03/28 07:53:12;;;;;;;24.97;23.37;;;11.30;56.70;;;;;;5091934;28;20449;-77
2021/03/28 07:55:55;;;;;;;25.30;23.50;;;11.40;56.50;;;;;;5094916;28;20594;-77
2021/03/28 07:58:55;;;;;;;24.17;22.57;;;11.50;55.90;;;;;;5095108;28;20459;-76
2021/03/28 08:01:51;;;;;;;24.43;22.73;;;11.80;55.30;;;;;;5095343;28;20949;-78
2021/03/28 08:04:45;;;;;;;25.00;23.40;;;12.00;55.50;;;;;;5095112;28;20452;-78
2021/03/28 08:07:45;;;;;;;24.63;22.90;;;12.10;54.90;;;;;;5095082;28;20461;-78
2021/03/28 08:10:59;;;;;;;25.43;23.67;;;12.30;54.30;;;;;;5099693;28;20551;-79
2021/03/28 08:13:56;;;;;;;23.50;22.10;;;12.30;53.90;;;;;;5059374;28;20441;-78
2021/03/28 08:16:37;;;;;;;23.80;22.40;;;12.30;54.10;;;;;;5094308;28;20449;-79
2021/03/28 08:19:29;;;;;;;23.87;22.07;;;12.40;54.00;;;;;;5094567;28;20461;-78
2021/03/28 08:22:07;;;;;;;23.73;22.33;;;12.30;54.50;;;;;;5094645;28;20492;-76
2021/03/28 08:25:18;;;;;;;26.47;24.97;;;12.20;54.20;;;;;;5094386;28;20453;-76
2021/03/28 08:28:14;;;;;;;24.53;22.90;;;12.00;54.70;;;;;;5093823;28;20506;-77
2021/03/28 08:30:48;;;;;;;24.33;22.63;;;11.90;55.20;;;;;;5090942;28;20481;-77
2021/03/28 08:34:13;;;;;;;25.67;24.00;;;11.90;55.60;;;;;;5093324;28;20787;-76
2021/03/28 08:36:59;;;;;;;27.13;24.90;;;11.80;56.40;;;;;;5092551;28;20985;-77
2021/03/28 08:39:53;;;;;;;27.70;25.63;;;11.70;55.40;;;;;;5094122;28;20493;-77
2021/03/28 08:42:37;;;;;;;24.77;23.00;;;11.80;54.80;;;;;;5094300;28;20455;-76
2021/03/28 08:45:19;;;;;;;24.03;22.23;;;11.90;54.70;;;;;;5094166;28;20453;-76
2021/03/28 08:48:15;;;;;;;25.93;24.10;;;11.90;55.80;;;;;;5093599;28;20473;-76
2021/03/28 08:50:55;;;;;;;24.33;22.60;;;11.90;55.40;;;;;;5093959;28;20473;-76
2021/03/28 08:53:43;;;;;;;24.53;22.80;;;11.90;55.00;;;;;;5094005;28;20961;-77
2021/03/28 08:56:32;;;;;;;24.60;22.87;;;12.00;54.80;;;;;;5093390;28;20938;-77
2021/03/28 08:59:14;;;;;;;24.13;22.43;;;12.10;54.50;;;;;;5093411;28;20485;-77
2021/03/28 09:01:47;;;;;;;24.60;23.00;;;12.20;54.50;;;;;;5094119;28;20943;-77
2021/03/28 09:04:24;;;;;;;25.03;22.83;;;12.30;53.90;;;;;;5093684;28;20984;-76
2021/03/28 09:07:01;;;;;;;24.23;22.50;;;12.30;53.80;;;;;;5093543;28;20448;-77
2021/03/28 09:09:52;;;;;;;32.57;24.77;;;12.40;53.30;;;;;;5093851;28;20573;-77
2021/03/28 09:12:34;;;;;;;23.77;22.23;;;12.40;53.30;;;;;;5093489;28;20453;-77
2021/03/28 09:15:26;;;;;;;23.87;22.17;;;12.30;52.90;;;;;;5093413;28;20950;-77
2021/03/28 09:18:14;;;;;;;24.40;22.70;;;12.40;52.70;;;;;;5094034;28;20453;-78
2021/03/28 09:20:54;;;;;;;24.93;22.60;;;12.50;52.10;;;;;;5093407;28;20970;-78
2021/03/28 09:23:39;;;;;;;26.83;24.27;;;12.60;52.00;;;;;;5095492;28;20821;-78
2021/03/28 09:26:30;;;;;;;24.80;23.00;;;12.70;51.10;;;;;;5093677;28;20453;-78
2021/03/28 09:29:11;;;;;;;51.40;29.73;;;12.70;50.30;;;;;;5094789;28;20480;-77
2021/03/28 09:31:51;;;;;;;26.17;24.13;;;12.80;50.00;;;;;;5093607;28;20488;-78
2021/03/28 09:34:39;;;;;;;24.30;22.90;;;12.80;49.60;;;;;;5093626;28;20509;-78
2021/03/28 09:37:16;;;;;;;23.27;21.83;;;12.90;48.50;;;;;;5093004;28;20534;-78
2021/03/28 09:40:12;;;;;;;23.97;22.40;;;13.00;48.50;;;;;;5093702;28;20477;-77
2021/03/28 09:43:07;;;;;;;23.90;22.40;;;13.00;47.00;;;;;;5076403;28;20981;-78
2021/03/28 09:46:11;;;;;;;24.30;22.80;;;13.20;47.10;;;;;;5092735;28;20448;-78
2021/03/28 09:49:14;;;;;;;26.40;24.80;;;13.00;47.00;;;;;;5092992;28;20537;-78
2021/03/28 09:52:18;;;;;;;23.27;21.87;;;13.00;47.40;;;;;;5092974;28;20449;-78
2021/03/28 09:55:21;;;;;;;25.10;23.50;;;13.00;46.50;;;;;;5092850;28;20495;-78
2021/03/28 09:58:23;;;;;;;25.07;23.40;;;13.00;46.90;;;;;;5092712;28;20463;-77
2021/03/28 10:01:07;;;;;;;25.20;23.60;;;13.20;47.00;;;;;;5092662;28;20622;-77
2021/03/28 10:03:43;;;;;;;24.73;22.77;;;13.40;46.80;;;;;;5093364;28;20453;-79
2021/03/28 10:06:15;;;;;;;25.57;23.83;;;13.60;46.40;;;;;;5093164;28;20453;-78
2021/03/28 10:08:45;;;;;;;24.17;22.57;;;13.70;46.20;;;;;;5092649;28;20481;-78
2021/03/28 10:11:32;;;;;;;25.13;23.53;;;13.80;46.20;;;;;;5092676;28;20535;-78
2021/03/28 10:14:09;;;;;;;25.27;23.60;;;14.00;46.00;;;;;;5092882;28;20599;-78
2021/03/28 10:16:43;;;;;;;25.40;23.80;;;14.00;45.10;;;;;;5092324;28;20817;-78
2021/03/28 10:19:19;;;;;;;24.73;23.33;;;14.10;44.10;;;;;;5092595;28;20475;-78
2021/03/28 10:21:56;;;;;;;25.87;23.63;;;14.10;44.20;;;;;;5092772;28;21005;-78
2021/03/28 10:24:41;;;;;;;24.50;22.77;;;14.20;44.30;;;;;;5092504;28;20535;-78
2021/03/28 10:27:37;;;;;;;24.33;22.83;;;14.00;44.60;;;;;;5091995;28;20453;-78
2021/03/28 10:30:17;;;;;;;24.10;22.60;;;14.20;44.60;;;;;;5092623;28;21042;-79
2021/03/28 10:32:56;;;;;;;25.67;23.10;;;14.30;44.00;;;;;;5092801;28;20448;-78
2021/03/28 10:35:52;;;;;;;23.63;22.13;;;14.30;44.40;;;;;;5092924;28;20581;-79
2021/03/28 10:38:49;;;;;;;24.47;23.00;;;14.30;44.00;;;;;;5092822;28;20528;-78
2021/03/28 10:41:36;;;;;;;23.50;22.20;;;14.40;43.80;;;;;;5093096;28;20493;-78
2021/03/28 10:44:37;;;;;;;24.40;22.87;;;14.50;43.60;;;;;;5095824;28;20449;-80
2021/03/28 10:47:56;;;;;;;25.37;23.67;;;14.50;43.60;;;;;;5094256;28;20934;-79
2021/03/28 10:51:11;;;;;;;25.77;23.77;;;14.30;43.80;;;;;;5010210;28;20469;-78
2021/03/28 10:54:00;;;;;;;24.20;22.80;;;14.50;44.60;;;;;;5029719;28;20480;-78
2021/03/28 10:57:06;;;;;;;24.43;22.73;;;14.60;43.80;;;;;;5089263;28;20444;-78
2021/03/28 11:00:03;;;;;;;25.40;23.60;;;14.50;42.80;;;;;;5095528;28;20469;-78
2021/03/28 11:03:19;;;;;;;23.57;22.10;;;14.50;43.00;;;;;;5096050;28;20481;-78
2021/03/28 11:06:35;;;;;;;24.87;23.40;;;14.40;43.10;;;;;;5095160;28;20448;-78
2021/03/28 11:09:32;;;;;;;25.43;23.70;;;14.50;42.90;;;;;;5095714;28;20798;-78
2021/03/28 11:12:27;;;;;;;23.90;22.70;;;14.60;43.00;;;;;;5095930;28;21264;-78
2021/03/28 11:15:16;;;;;;;24.07;22.43;;;14.60;43.10;;;;;;5095859;28;20456;-78
2021/03/28 11:18:12;;;;;;;24.07;22.30;;;14.60;42.70;;;;;;5095119;28;20912;-78
2021/03/28 11:20:50;;;;;;;24.40;22.90;;;14.60;42.60;;;;;;5095685;28;20473;-79
2021/03/28 11:23:52;;;;;;;23.63;22.23;;;14.60;42.80;;;;;;5095948;28;20448;-78
2021/03/28 11:26:38;;;;;;;24.50;22.90;;;14.70;43.00;;;;;;5095180;28;20456;-78
2021/03/28 11:29:29;;;;;;;25.47;23.43;;;14.70;43.20;;;;;;5095694;28;20477;-78
2021/03/28 11:32:02;;;;;;;24.53;22.93;;;14.80;42.90;;;;;;5096079;28;20826;-78
2021/03/28 11:34:34;;;;;;;22.87;21.67;;;14.80;43.10;;;;;;5095408;28;20452;-78
2021/03/28 11:37:05;;;;;;;24.40;22.87;;;14.90;42.80;;;;;;5094778;28;20457;-78
2021/03/28 11:39:32;;;;;;;24.30;22.80;;;15.00;42.40;;;;;;5095478;28;20552;-78
2021/03/28 11:42:18;;;;;;;24.57;22.83;;;14.90;42.80;;;;;;5095211;28;20827;-78
2021/03/28 11:45:19;;;;;;;24.63;23.10;;;15.00;43.00;;;;;;5095072;28;20867;-78
2021/03/28 11:47:52;;;;;;;24.93;23.13;;;15.10;42.90;;;;;;5094493;28;20472;-78
2021/03/28 11:50:33;;;;;;;26.53;24.70;;;15.10;43.00;;;;;;5095138;28;20468;-78
2021/03/28 11:53:07;;;;;;;24.60;23.10;;;15.10;42.70;;;;;;5095176;28;20539;-78
2021/03/28 11:55:56;;;;;;;24.73;23.23;;;15.20;42.50;;;;;;5094659;28;20449;-78
2021/03/28 11:58:55;;;;;;;24.13;22.57;;;15.30;42.50;;;;;;5089033;28;20548;-78
2021/03/28 12:01:59;;;;;;;24.53;23.03;;;15.40;42.60;;;;;;5095985;28;20455;-78
2021/03/28 12:04:27;;;;;;;25.30;23.80;;;15.40;41.80;;;;;;5095532;28;20441;-78
2021/03/28 12:06:57;;;;;;;25.87;24.23;;;15.50;41.20;;;;;;5094157;28;20445;-78
2021/03/28 12:09:30;;;;;;;24.90;23.40;;;15.50;41.50;;;;;;5094910;28;20560;-78
2021/03/28 12:12:12;;;;;;;25.33;23.83;;;15.60;41.60;;;;;;5094618;28;20491;-78
2021/03/28 12:14:39;;;;;;;24.20;22.80;;;15.70;41.30;;;;;;5094808;28;20457;-78
2021/03/28 12:17:29;;;;;;;24.57;23.10;;;15.80;40.80;;;;;;5094211;28;20449;-78
2021/03/28 12:20:23;;;;;;;24.43;23.03;;;15.90;40.90;;;;;;5089354;28;20473;-78
2021/03/28 12:23:20;;;;;;;26.40;24.40;;;15.90;41.10;;;;;;5094566;28;20492;-78
2021/03/28 12:26:04;;;;;;;24.80;23.27;;;16.00;41.20;;;;;;5093998;28;20503;-78
2021/03/28 12:28:46;;;;;;;24.87;23.17;;;16.10;40.40;;;;;;5094324;28;20479;-78
2021/03/28 12:31:28;;;;;;;26.40;24.63;;;16.10;40.80;;;;;;5094521;28;20460;-78
2021/03/28 12:34:06;;;;;;;26.27;24.17;;;16.10;40.90;;;;;;5094410;28;20496;-78
2021/03/28 12:36:53;;;;;;;25.40;23.77;;;16.10;41.00;;;;;;5093830;28;20886;-78
2021/03/28 12:39:23;;;;;;;25.40;23.90;;;16.20;40.30;;;;;;5094218;28;21136;-78
2021/03/28 12:42:19;;;;;;;24.67;22.93;;;16.30;39.70;;;;;;5094367;28;20446;-78
2021/03/28 12:44:47;;;;;;;24.70;23.20;;;16.30;39.90;;;;;;5094295;28;20461;-79
2021/03/28 12:47:25;;;;;;;25.80;23.83;;;16.30;40.00;;;;;;5093561;28;20506;-78
2021/03/28 12:49:58;;;;;;;29.33;26.53;;;16.30;40.10;;;;;;5094411;28;20485;-78
2021/03/28 12:52:43;;;;;;;25.07;23.40;;;16.40;39.70;;;;;;5094507;28;20500;-78
2021/03/28 12:55:27;;;;;;;25.10;23.50;;;16.50;39.90;;;;;;5093989;28;20806;-78
2021/03/28 12:57:55;;;;;;;24.40;23.00;;;16.50;40.10;;;;;;5077096;28;20453;-77
2021/03/28 13:00:36;;;;;;;25.53;23.30;;;16.40;39.20;;;;;;5093220;28;20476;-78
2021/03/28 13:03:13;;;;;;;25.50;24.00;;;16.30;40.50;;;;;;5093928;28;20441;-77
2021/03/28 13:06:20;;;;;;;25.17;23.47;;;16.40;41.70;;;;;;5092947;28;20448;-77
2021/03/28 13:08:50;;;;;;;24.70;23.07;;;16.50;40.30;;;;;;5093640;28;20481;-78
2021/03/28 13:11:26;;;;;;;24.67;22.73;;;16.50;40.60;;;;;;5093795;28;20452;-78
2021/03/28 13:13:53;;;;;;;23.90;22.50;;;16.60;40.40;;;;;;5093694;28;20459;-78
2021/03/28 13:16:26;;;;;;;23.97;22.40;;;16.70;39.70;;;;;;5092972;28;20452;-78
2021/03/28 13:18:53;;;;;;;24.10;22.60;;;16.70;39.70;;;;;;5093063;28;20540;-78
2021/03/28 13:21:23;;;;;;;24.47;23.07;;;16.60;40.20;;;;;;5093521;28;20453;-78
2021/03/28 13:23:57;;;;;;;23.77;22.37;;;16.70;40.10;;;;;;5093621;28;20454;-78
2021/03/28 13:26:25;;;;;;;24.67;23.17;;;16.70;41.40;;;;;;5092691;28;20445;-79
2021/03/28 13:29:17;;;;;;;24.07;22.47;;;16.70;40.90;;;;;;5093095;28;20480;-78
2021/03/28 13:31:53;;;;;;;24.87;23.50;;;16.90;40.20;;;;;;5093536;28;20532;-78
2021/03/28 13:34:27;;;;;;;23.63;22.13;;;16.90;39.50;;;;;;5093232;28;20458;-78
2021/03/28 13:37:08;;;;;;;23.50;22.10;;;16.80;39.50;;;;;;5092665;28;20467;-78
2021/03/28 13:39:37;;;;;;;23.87;22.37;;;16.80;40.30;;;;;;5093436;28;20473;-78
2021/03/28 13:42:21;;;;;;;23.70;22.30;;;16.90;40.30;;;;;;5093465;28;20453;-78
2021/03/28 13:44:56;;;;;;;24.47;22.97;;;17.00;39.60;;;;;;5093374;28;20463;-79
2021/03/28 13:47:46;;;;;;;24.07;22.67;;;17.00;39.10;;;;;;5092670;28;20449;-80
2021/03/28 13:50:45;;;;;;;24.70;23.30;;;16.90;39.20;;;;;;5087927;28;20561;-78
2021/03/28 13:53:41;;;;;;;24.20;22.90;;;16.80;39.30;;;;;;5093736;28;20939;-77
2021/03/28 13:56:45;;;;;;;23.87;22.57;;;16.90;39.50;;;;;;5094028;28;20459;-78
2021/03/28 13:59:16;;;;;;;24.57;23.10;;;17.00;39.10;;;;;;5093630;28;20469;-78
2021/03/28 14:01:57;;;;;;;23.43;22.23;;;17.00;39.20;;;;;;5094491;28;20505;-78
2021/03/28 14:04:36;;;;;;;24.30;22.70;;;17.10;39.40;;;;;;5095109;28;20459;-78
2021/03/28 14:07:17;;;;;;;24.03;22.57;;;17.30;39.00;;;;;;5095753;28;20452;-79
2021/03/28 14:09:48;;;;;;;25.03;23.17;;;17.50;38.70;;;;;;5095434;28;20486;-78
2021/03/28 14:12:25;;;;;;;24.37;22.97;;;17.50;38.90;;;;;;5097690;28;20813;-78
2021/03/28 14:15:07;;;;;;;24.60;22.93;;;17.50;38.90;;;;;;5096409;28;20515;-81